• Join FlightAware (Why Join?)
  • Login
  • US Flag 
04:48PM EDT


 

Airport Tracker/Info


-or-


 

Live Flight TrackerFlight Track Log ✈ AIE881 ✈ 21-Jun-2013 ✈ CYPH - CYGL

Flight Track Log - Related Links

Times and Time Zones

All times are in EDT time to prevent confusion due to time zone crossing. See the AIE881 flight status page for this flight to view local times or setup timezone preferences in your user account.

Time Position Orientation Groundspeed Altitude Reporting Facility
EDT Latitude Longitude Course Direction KTS MPH feet Rate Location/Type
03:08PM 57.8603 -78.0150 178° South  Level FlightAware Approximate
03:09PM 57.7928 -78.0102 178° South  Level FlightAware Approximate
03:10PM 57.7254 -78.0054 178° South  Level FlightAware Approximate
03:11PM 57.6580 -78.0006 178° South  Level FlightAware Approximate
03:12PM 57.5906 -77.9954 178° South  Level FlightAware Approximate
03:13PM 57.5232 -77.9902 178° South  Level FlightAware Approximate
03:13PM 45.8333 -73.1833 177° South 60 69 1,000  Level Montreal Center
03:14PM 57.4558 -77.9850 178° South  Level FlightAware Approximate
03:15PM 57.3883 -77.9803 178° South  Level FlightAware Approximate
03:15PM 45.9067 -73.2194 341° North  Level Estimated
03:16PM 57.3209 -77.9758 178° South  Level FlightAware Approximate
03:17PM 57.2535 -77.9713 178° South  Level FlightAware Approximate
03:18PM 57.1861 -77.9669 178° South  Level FlightAware Approximate
03:19PM 57.1187 -77.9602 177° South  Level FlightAware Approximate
03:22PM 46.3534 -73.4408 341° North  Level Estimated
03:23PM 46.4172 -73.4727 341° North  Level Estimated
03:24PM 46.4809 -73.5047 341° North  Level Estimated
03:25PM 46.5447 -73.5368 341° North  Level Estimated
03:26PM 46.6085 -73.5689 341° North  Level Estimated
03:27PM 46.6722 -73.6012 341° North  Level Estimated
03:27PM 56.7500 -77.8667 341° North 250 288 24,000  Level Montreal Center
03:28PM 46.7359 -73.6335 341° North  Level Estimated
03:28PM 56.6833 -77.8667 180° South 250 288 24,000  Level Montreal Center
03:29PM 46.7996 -73.6658 341° North  Level Estimated
03:29PM 56.6000 -77.8500 174° South 260 299 24,000  Level Montreal Center
03:30PM 46.8634 -73.6983 341° North  Level Estimated
03:30PM 56.5167 -77.8500 180° South 260 299 24,000  Level Montreal Center
03:31PM 46.9271 -73.7308 341° North  Level Estimated
03:31PM 56.4500 -77.8500 180° South 260 299 24,000  Level Montreal Center
03:32PM 46.9907 -73.7634 341° North  Level Estimated
03:32PM 56.3833 -77.8500 180° South 260 299 24,000  Level Montreal Center
03:33PM 47.0544 -73.7961 341° North  Level Estimated
03:33PM 56.3167 -77.8500 180° South 260 299 24,000  Level Montreal Center
03:34PM 56.2333 -77.8333 174° South 250 288 24,000  Level Montreal Center
03:35PM 56.1667 -77.8333 180° South 250 288 24,000  Level Montreal Center
03:36PM 56.1000 -77.8333 180° South 250 288 24,000  Level Montreal Center
03:37PM 56.0333 -77.8333 180° South 240 276 24,000  Level Montreal Center
03:38PM 55.9667 -77.8333 180° South 250 288 24,000  Level Montreal Center
03:39PM 55.8833 -77.8167 174° South 250 288 24,000  Level Montreal Center
03:40PM 55.8167 -77.8167 180° South 250 288 24,000  Level Montreal Center
03:41PM 55.7500 -77.8167 180° South 250 288 24,000  Level Montreal Center
03:42PM 55.6833 -77.8167 180° South 250 288 24,000  Level Montreal Center
03:43PM 55.6167 -77.8167 180° South 250 288 24,000  Level Montreal Center
03:44PM 55.5500 -77.8000 172° South 250 288 24,000  Level Montreal Center
03:45PM 55.4833 -77.8000 180° South 250 288 24,000  Level Montreal Center
03:46PM 55.4167 -77.8000 180° South 250 288 24,000  Level Montreal Center
03:47PM 55.3500 -77.8000 180° South 250 288 24,000  Level Montreal Center
03:48PM 55.2833 -77.8000 180° South 250 288 24,000  Level Montreal Center
03:49PM 55.2000 -77.7833 173° South 250 288 24,000  Level Montreal Center
03:50PM 55.1333 -77.7833 180° South 250 288 24,000  Level Montreal Center
03:51PM 55.0667 -77.7833 180° South 250 288 24,000  Level Montreal Center
03:52PM 55.0000 -77.7833 180° South 250 288 24,000  Level Montreal Center
03:53PM 54.9333 -77.7833 180° South 250 288 24,000  Level Montreal Center
03:54PM 54.8500 -77.7833 180° South 250 288 24,000  Level Montreal Center
03:55PM 54.7667 -77.7667 173° South 250 288 24,000 -300 Level Montreal Center
03:56PM 54.7000 -77.7667 180° South 250 288 23,400 -1,200 Descending Montreal Center
03:57PM 54.6167 -77.7667 180° South 280 322 21,600 -1,860 Descending Montreal Center
03:58PM 54.5333 -77.7667 180° South 310 357 19,700 -1,920 Descending Montreal Center
03:59PM 54.4500 -77.7667 180° South 320 368 17,800 -1,920 Descending Montreal Center
04:00PM 54.3667 -77.7500 173° South 310 357 15,900 -1,860 Descending Montreal Center
04:01PM 54.2833 -77.7500 180° South 310 357 14,100 -1,860 Descending Montreal Center
04:02PM 54.1833 -77.7500 180° South 300 345 12,200 -1,800 Descending Montreal Center
04:03PM 54.1000 -77.7500 180° South 290 334 10,500 -1,740 Descending Montreal Center
04:04PM 54.0333 -77.7333 172° South 280 322 8,800 -1,620 Descending Montreal Center
04:05PM 53.9500 -77.7333 180° South 270 311 7,300 -1,560 Descending Montreal Center
04:06PM 53.8833 -77.7333 180° South 250 288 5,700 -1,560 Descending Montreal Center
04:07PM 53.8167 -77.7333 180° South 240 276 4,200 -1,320 Descending Montreal Center
04:08PM 53.7667 -77.7333 180° South 220 253 3,100 -900 Descending Montreal Center
04:09PM 53.7167 -77.7500 191° South 170 196 2,400 -600 Descending Montreal Center
04:10PM 53.6833 -77.7500 180° South 140 161 2,000 -300 Descending Montreal Center
04:11PM 53.6500 -77.7833 211° Southwest 130 150 1,800 -240 Descending Montreal Center